createdAt,value
2023-01-30T00:01:42.278Z,3.74
2023-01-30T00:03:47.924Z,3.87
2023-01-30T00:05:51.571Z,3.26
2023-01-30T00:07:55.049Z,3.72
2023-01-30T00:09:58.672Z,3.71
2023-01-30T00:12:02.072Z,3.91
2023-01-30T00:14:05.535Z,3.89
2023-01-30T00:16:10.572Z,4.01
2023-01-30T00:18:14.036Z,3.92
2023-01-30T00:20:19.403Z,4.00
2023-01-30T00:22:22.969Z,3.91
2023-01-30T00:24:26.442Z,4.03
2023-01-30T00:26:30.066Z,3.97
2023-01-30T00:28:34.120Z,4.09
2023-01-30T00:30:37.545Z,4.10
2023-01-30T00:32:41.470Z,4.14
2023-01-30T00:34:44.959Z,4.37
2023-01-30T00:36:58.911Z,4.28
2023-01-30T00:39:09.965Z,4.36
2023-01-30T00:41:15.295Z,4.25
2023-01-30T00:43:38.739Z,4.19
2023-01-30T00:46:03.797Z,4.21
2023-01-30T00:48:08.068Z,4.38
2023-01-30T00:50:12.414Z,4.12
2023-01-30T00:52:18.460Z,4.10
2023-01-30T00:54:21.947Z,4.19
2023-01-30T00:56:25.551Z,4.09
2023-01-30T00:58:29.229Z,4.06
2023-01-30T01:00:33.102Z,4.22
2023-01-30T01:02:36.664Z,4.36
2023-01-30T01:04:43.416Z,4.33
2023-01-30T01:06:47.882Z,4.24
2023-01-30T01:08:52.871Z,4.15
2023-01-30T01:10:56.577Z,4.08
2023-01-30T01:13:00.000Z,4.14
2023-01-30T01:15:03.915Z,4.12
2023-01-30T01:17:07.873Z,4.21
2023-01-30T01:19:11.309Z,4.15
2023-01-30T01:21:20.214Z,4.09
2023-01-30T01:23:24.160Z,4.22
2023-01-30T01:25:29.173Z,3.67
2023-01-30T01:27:35.489Z,4.39
2023-01-30T01:29:38.976Z,4.35
2023-01-30T01:31:43.474Z,4.41
2023-01-30T01:33:47.036Z,4.48
2023-01-30T01:35:50.479Z,4.44
2023-01-30T01:37:54.612Z,4.32
2023-01-30T01:40:27.120Z,4.47
2023-01-30T01:42:37.250Z,4.42
2023-01-30T01:45:03.706Z,4.38
2023-01-30T01:47:10.615Z,4.30
2023-01-30T01:49:20.871Z,4.36
2023-01-30T01:51:30.781Z,4.46
2023-01-30T01:53:37.422Z,4.32
2023-01-30T01:55:44.605Z,4.26
2023-01-30T01:57:53.400Z,4.33
2023-01-30T02:00:04.046Z,4.48
2023-01-30T02:02:16.932Z,4.55
2023-01-30T02:04:46.843Z,4.64
2023-01-30T02:06:50.877Z,4.55
2023-01-30T02:08:59.876Z,4.66
2023-01-30T02:11:10.536Z,4.63
2023-01-30T02:13:15.361Z,3.35
2023-01-30T02:15:20.950Z,4.49
2023-01-30T02:17:24.585Z,4.52
2023-01-30T02:19:37.153Z,4.43
2023-01-30T02:22:08.839Z,4.62
2023-01-30T02:24:32.422Z,4.64
2023-01-30T02:26:58.384Z,4.72
2023-01-30T02:29:40.473Z,4.71
2023-01-30T02:31:51.428Z,4.68
2023-01-30T02:34:08.543Z,4.73
2023-01-30T02:36:21.422Z,4.82
2023-01-30T02:38:39.671Z,4.70
2023-01-30T02:40:50.290Z,4.54
2023-01-30T02:43:04.911Z,4.72
2023-01-30T02:45:17.147Z,4.82
2023-01-30T02:47:30.741Z,4.55
2023-01-30T02:49:40.017Z,4.58
2023-01-30T02:51:47.374Z,4.69
2023-01-30T02:53:52.487Z,4.65
2023-01-30T02:55:56.530Z,4.59
2023-01-30T02:58:01.319Z,4.44
2023-01-30T03:00:07.374Z,4.33
2023-01-30T03:02:28.158Z,4.33
2023-01-30T03:04:53.661Z,4.39
2023-01-30T03:07:21.153Z,4.40
2023-01-30T03:09:34.178Z,4.57
2023-01-30T03:11:48.266Z,4.47
2023-01-30T03:13:56.926Z,4.50
2023-01-30T03:16:13.501Z,4.53
2023-01-30T03:18:20.161Z,4.53
2023-01-30T03:20:23.881Z,4.51
2023-01-30T03:22:28.140Z,4.45
2023-01-30T03:24:33.904Z,4.56
2023-01-30T03:26:41.944Z,4.58
2023-01-30T03:28:49.859Z,4.66
2023-01-30T03:30:53.604Z,4.53
2023-01-30T03:32:57.840Z,4.60
2023-01-30T03:35:03.407Z,4.66
2023-01-30T03:37:07.547Z,4.72
2023-01-30T03:39:12.719Z,4.77
2023-01-30T03:41:17.077Z,4.66
2023-01-30T03:43:21.071Z,4.69
2023-01-30T03:45:24.872Z,4.73
2023-01-30T03:47:29.206Z,4.71
2023-01-30T03:49:34.176Z,4.70
2023-01-30T03:51:39.141Z,4.77
2023-01-30T03:53:42.605Z,4.87
2023-01-30T03:55:47.888Z,4.88
2023-01-30T03:57:56.816Z,4.86
2023-01-30T04:00:01.974Z,4.88
2023-01-30T04:02:08.366Z,4.77
2023-01-30T04:04:11.969Z,4.77
2023-01-30T04:06:15.816Z,4.78
2023-01-30T04:08:20.804Z,4.73
2023-01-30T04:10:25.390Z,4.78
2023-01-30T04:12:29.354Z,4.89
2023-01-30T04:14:35.548Z,4.77
2023-01-30T04:16:52.629Z,4.73
2023-01-30T04:19:21.962Z,4.90
2023-01-30T04:21:25.581Z,4.94
2023-01-30T04:23:30.532Z,4.88
2023-01-30T04:25:34.927Z,4.77
2023-01-30T04:27:44.601Z,4.75
2023-01-30T04:29:58.369Z,4.91
2023-01-30T04:32:02.828Z,4.81
2023-01-30T04:34:10.390Z,4.92
2023-01-30T04:36:14.196Z,4.90
2023-01-30T04:38:19.151Z,4.90
2023-01-30T04:40:24.215Z,4.85
2023-01-30T04:42:27.835Z,4.84
2023-01-30T04:45:00.644Z,4.93
2023-01-30T04:47:05.681Z,4.88
2023-01-30T04:49:10.974Z,4.81
2023-01-30T04:51:15.901Z,4.87
2023-01-30T04:53:21.070Z,4.86
2023-01-30T04:55:26.011Z,4.79
2023-01-30T04:57:29.866Z,4.85
2023-01-30T04:59:33.308Z,4.94
2023-01-30T05:01:41.208Z,4.89
2023-01-30T05:03:44.689Z,4.91
2023-01-30T05:05:48.944Z,4.88
2023-01-30T05:07:53.123Z,4.96
2023-01-30T05:09:56.632Z,4.99
2023-01-30T05:12:01.591Z,5.01
2023-01-30T05:14:05.187Z,4.88
2023-01-30T05:16:08.991Z,4.97
2023-01-30T05:18:12.551Z,4.96
2023-01-30T05:20:16.150Z,4.95
2023-01-30T05:22:19.858Z,5.00
2023-01-30T05:24:24.061Z,5.07
2023-01-30T05:26:27.782Z,4.90
2023-01-30T05:28:33.329Z,4.90
2023-01-30T05:30:37.755Z,5.00
2023-01-30T05:32:44.372Z,5.05
2023-01-30T05:34:49.538Z,5.06
2023-01-30T05:36:53.404Z,5.15
2023-01-30T05:38:56.893Z,5.09
2023-01-30T05:41:02.129Z,5.04
2023-01-30T05:43:05.713Z,4.97
2023-01-30T05:45:11.739Z,4.93
2023-01-30T05:47:15.129Z,5.04
2023-01-30T05:49:20.019Z,5.04
2023-01-30T05:51:25.681Z,4.94
2023-01-30T05:53:32.126Z,4.99
2023-01-30T05:55:35.801Z,5.03
2023-01-30T05:57:39.194Z,5.06
2023-01-30T05:59:42.679Z,4.94
2023-01-30T06:01:47.514Z,5.15
2023-01-30T06:03:51.475Z,5.08
2023-01-30T06:05:54.998Z,5.17
2023-01-30T06:07:58.467Z,5.18
2023-01-30T06:10:01.951Z,5.30
2023-01-30T06:12:07.547Z,5.20
2023-01-30T06:14:12.126Z,5.27
2023-01-30T06:16:17.549Z,5.25
2023-01-30T06:18:22.555Z,5.15
2023-01-30T06:20:25.982Z,5.18
2023-01-30T06:22:30.620Z,5.24
2023-01-30T06:24:34.233Z,5.14
2023-01-30T06:26:38.176Z,5.22
2023-01-30T06:28:42.763Z,5.28
2023-01-30T06:30:46.279Z,5.38
2023-01-30T06:32:52.034Z,5.22
2023-01-30T06:34:56.759Z,5.12
2023-01-30T06:37:00.876Z,5.35
2023-01-30T06:39:05.795Z,5.38
2023-01-30T06:41:09.460Z,5.49
2023-01-30T06:43:13.024Z,5.52
2023-01-30T06:45:18.451Z,5.62
2023-01-30T06:47:22.227Z,5.58
2023-01-30T06:49:25.600Z,5.42
2023-01-30T06:51:32.503Z,5.43
2023-01-30T06:53:36.635Z,5.42
2023-01-30T06:55:40.076Z,5.55
2023-01-30T06:57:44.123Z,5.51
2023-01-30T06:59:47.660Z,5.67
2023-01-30T07:01:52.530Z,5.57
2023-01-30T07:03:56.060Z,5.74
2023-01-30T07:05:59.698Z,5.78
2023-01-30T07:08:04.615Z,5.87
2023-01-30T07:10:14.208Z,5.83
2023-01-30T07:12:17.661Z,5.85
2023-01-30T07:14:21.093Z,5.87
2023-01-30T07:16:29.209Z,5.86
2023-01-30T07:18:32.807Z,5.77
2023-01-30T07:20:36.478Z,5.81
2023-01-30T07:22:40.042Z,5.77
2023-01-30T07:24:44.926Z,5.95
2023-01-30T07:26:49.288Z,5.93
2023-01-30T07:28:52.845Z,6.12
2023-01-30T07:30:56.426Z,6.10
2023-01-30T07:33:01.484Z,5.98
2023-01-30T07:35:06.094Z,5.94
2023-01-30T07:37:09.740Z,6.15
2023-01-30T07:39:13.153Z,6.15
2023-01-30T07:41:18.104Z,6.27
2023-01-30T07:43:22.040Z,6.24
2023-01-30T07:45:25.822Z,5.58
2023-01-30T07:47:30.827Z,6.00
2023-01-30T07:49:34.250Z,6.04
2023-01-30T07:51:37.766Z,6.06
2023-01-30T07:53:41.785Z,5.76
2023-01-30T07:55:45.557Z,6.07
2023-01-30T07:57:50.764Z,6.17
2023-01-30T07:59:54.217Z,6.28
2023-01-30T08:01:58.703Z,6.32
2023-01-30T08:04:03.106Z,6.19
2023-01-30T08:06:07.952Z,6.09
2023-01-30T08:08:11.367Z,6.03
2023-01-30T08:10:14.836Z,6.11
2023-01-30T08:12:18.397Z,6.10
2023-01-30T08:14:23.327Z,6.21
2023-01-30T08:16:27.057Z,6.29
2023-01-30T08:18:31.279Z,6.40
2023-01-30T08:20:35.068Z,6.35
2023-01-30T08:22:38.511Z,6.31
2023-01-30T08:24:42.336Z,6.44
2023-01-30T08:26:48.842Z,6.55
2023-01-30T08:28:52.393Z,6.46
2023-01-30T08:30:58.298Z,6.38
2023-01-30T08:33:02.187Z,6.30
2023-01-30T08:35:06.958Z,6.36
2023-01-30T08:37:10.878Z,6.46
2023-01-30T08:39:14.969Z,6.41
2023-01-30T08:41:18.472Z,6.46
2023-01-30T08:43:22.425Z,6.61
2023-01-30T08:45:26.009Z,6.50
2023-01-30T08:47:31.561Z,6.53
2023-01-30T08:49:35.225Z,6.62
2023-01-30T08:51:39.830Z,6.68
2023-01-30T08:53:43.350Z,6.68
2023-01-30T08:55:47.160Z,6.74
2023-01-30T08:57:51.333Z,6.69
2023-01-30T08:59:54.886Z,6.76
2023-01-30T09:01:58.348Z,6.84
2023-01-30T09:04:03.227Z,6.86
2023-01-30T09:06:06.931Z,6.83
2023-01-30T09:08:10.478Z,6.79
2023-01-30T09:10:15.003Z,6.82
2023-01-30T09:12:18.496Z,6.74
2023-01-30T09:14:22.343Z,6.80
2023-01-30T09:16:26.849Z,6.91
2023-01-30T09:18:30.493Z,7.09
2023-01-30T09:20:35.527Z,6.99
2023-01-30T09:22:38.994Z,7.11
2023-01-30T09:24:42.442Z,7.05
2023-01-30T09:26:46.096Z,7.07
2023-01-30T09:28:49.646Z,7.17
2023-01-30T09:30:53.518Z,7.11
2023-01-30T09:32:57.095Z,7.02
2023-01-30T09:35:00.591Z,7.02
2023-01-30T09:37:06.868Z,7.11
2023-01-30T09:39:10.821Z,7.07
2023-01-30T09:41:37.225Z,7.12
2023-01-30T09:43:55.004Z,7.16
2023-01-30T09:46:09.650Z,7.19
2023-01-30T09:48:22.171Z,7.14
2023-01-30T09:50:48.993Z,7.16
2023-01-30T09:53:01.414Z,7.39
2023-01-30T09:55:20.965Z,7.33
2023-01-30T09:57:26.679Z,7.35
2023-01-30T09:59:37.951Z,7.36
2023-01-30T10:01:51.595Z,7.59
2023-01-30T10:04:13.102Z,7.43
2023-01-30T10:06:17.311Z,7.48
2023-01-30T10:08:43.807Z,7.59
2023-01-30T10:11:00.873Z,7.80
2023-01-30T10:13:26.429Z,7.72
2023-01-30T10:15:37.593Z,7.46
2023-01-30T10:17:54.860Z,7.54
2023-01-30T10:20:26.744Z,7.56
2023-01-30T10:22:43.934Z,6.81
2023-01-30T10:25:00.931Z,7.28
2023-01-30T10:27:10.463Z,6.65
2023-01-30T10:29:19.712Z,7.28
2023-01-30T10:31:27.491Z,7.20
2023-01-30T10:33:35.762Z,7.28
2023-01-30T10:35:42.928Z,7.28
2023-01-30T10:37:53.825Z,7.28
2023-01-30T10:40:07.317Z,7.33
2023-01-30T10:42:13.691Z,7.32
2023-01-30T10:44:19.075Z,7.32
2023-01-30T10:46:37.832Z,7.36
2023-01-30T10:48:56.114Z,7.29
2023-01-30T10:51:06.888Z,7.11
2023-01-30T10:53:18.762Z,7.14
2023-01-30T10:55:37.664Z,7.10
2023-01-30T10:57:56.439Z,7.27
2023-01-30T11:00:05.112Z,7.27
2023-01-30T11:02:22.491Z,7.17
2023-01-30T11:04:32.303Z,7.20
2023-01-30T11:06:36.618Z,7.25
2023-01-30T11:08:41.014Z,7.25
2023-01-30T11:10:46.172Z,7.13
2023-01-30T11:12:54.025Z,7.11
2023-01-30T11:14:59.878Z,7.19
2023-01-30T11:17:03.871Z,7.18
2023-01-30T11:19:23.660Z,7.26
2023-01-30T11:21:42.353Z,7.23
2023-01-30T11:23:47.927Z,6.74
2023-01-30T11:26:10.161Z,7.31
2023-01-30T11:28:17.500Z,7.44
2023-01-30T11:30:23.292Z,7.49
2023-01-30T11:32:29.181Z,7.42
2023-01-30T11:34:33.663Z,7.28
2023-01-30T11:36:38.187Z,7.36
2023-01-30T11:38:58.266Z,7.26
2023-01-30T11:41:14.634Z,7.31
2023-01-30T11:43:18.429Z,7.32
2023-01-30T11:45:30.146Z,7.27
2023-01-30T11:47:34.027Z,7.31
2023-01-30T11:49:46.995Z,7.29
2023-01-30T11:52:07.820Z,7.27
2023-01-30T11:54:16.028Z,7.15
2023-01-30T11:56:25.912Z,7.49
2023-01-30T11:58:32.932Z,7.61
2023-01-30T12:00:41.052Z,7.54
2023-01-30T12:02:46.357Z,7.44
2023-01-30T12:04:54.055Z,7.36
2023-01-30T12:07:07.580Z,7.47
2023-01-30T12:09:34.448Z,7.40
2023-01-30T12:11:46.039Z,7.31
2023-01-30T12:13:51.286Z,7.35
2023-01-30T12:16:05.595Z,7.35
2023-01-30T12:18:17.435Z,7.53
2023-01-30T12:20:29.638Z,7.44
2023-01-30T12:22:40.154Z,7.49
2023-01-30T12:24:47.548Z,7.53
2023-01-30T12:26:57.546Z,7.50
2023-01-30T12:29:09.723Z,7.47
2023-01-30T12:31:20.184Z,7.47
2023-01-30T12:33:27.771Z,7.45
2023-01-30T12:35:45.445Z,7.58
2023-01-30T12:38:03.376Z,7.67
2023-01-30T12:40:21.591Z,7.49
2023-01-30T12:42:52.172Z,7.50
2023-01-30T12:45:05.971Z,7.51
2023-01-30T12:47:25.199Z,7.50
2023-01-30T12:49:44.213Z,6.85
2023-01-30T12:52:04.794Z,7.45
2023-01-30T12:54:21.244Z,7.57
2023-01-30T12:56:53.615Z,7.67
2023-01-30T12:59:05.990Z,7.66
2023-01-30T13:01:24.473Z,7.59
2023-01-30T13:03:40.897Z,7.71
2023-01-30T13:05:49.241Z,7.80
2023-01-30T13:08:07.497Z,7.88
2023-01-30T13:10:18.637Z,7.97
2023-01-30T13:12:35.465Z,7.87
2023-01-30T13:14:48.639Z,7.97
2023-01-30T13:17:11.676Z,7.97
2023-01-30T13:19:25.509Z,7.81
2023-01-30T13:21:38.112Z,7.90
2023-01-30T13:24:05.120Z,7.82
2023-01-30T13:26:11.632Z,7.77
2023-01-30T13:28:18.781Z,7.83
2023-01-30T13:30:25.615Z,7.82
2023-01-30T13:32:36.882Z,7.77
2023-01-30T13:34:44.750Z,7.78
2023-01-30T13:36:55.460Z,8.00
2023-01-30T13:39:02.917Z,7.94
2023-01-30T13:41:07.620Z,7.99
2023-01-30T13:43:20.952Z,7.97
2023-01-30T13:45:29.538Z,7.87
2023-01-30T13:47:45.010Z,7.86
2023-01-30T13:49:58.672Z,7.85
2023-01-30T13:52:08.108Z,7.85
2023-01-30T13:54:24.744Z,7.96
2023-01-30T13:56:41.380Z,8.00
2023-01-30T13:58:50.852Z,8.06
2023-01-30T14:00:56.652Z,7.95
2023-01-30T14:03:31.461Z,7.94
2023-01-30T14:06:07.374Z,7.89
2023-01-30T14:08:15.115Z,8.02
2023-01-30T14:10:23.733Z,7.99
2023-01-30T14:12:33.812Z,7.97
2023-01-30T14:14:40.050Z,7.99
2023-01-30T14:16:49.854Z,7.91
2023-01-30T14:18:53.826Z,7.84
2023-01-30T14:21:14.966Z,7.89
2023-01-30T14:23:25.667Z,7.84
2023-01-30T14:25:46.020Z,7.77
2023-01-30T14:27:52.933Z,7.88
2023-01-30T14:29:57.566Z,7.90
2023-01-30T14:32:02.904Z,7.96
2023-01-30T14:34:49.140Z,7.83
2023-01-30T14:36:54.374Z,7.96
2023-01-30T14:39:18.830Z,8.18
2023-01-30T14:41:27.863Z,8.21
2023-01-30T14:43:38.421Z,7.65
2023-01-30T14:45:49.227Z,8.23
2023-01-30T14:48:28.855Z,8.25
2023-01-30T14:50:33.832Z,8.28
2023-01-30T14:52:41.476Z,8.15
2023-01-30T14:54:51.440Z,8.17
2023-01-30T14:56:58.642Z,7.78
2023-01-30T14:59:06.385Z,8.18
2023-01-30T15:01:10.356Z,8.09
2023-01-30T15:03:21.043Z,8.04
2023-01-30T15:05:31.611Z,7.27
2023-01-30T15:07:42.950Z,7.29
2023-01-30T15:09:54.097Z,7.53
2023-01-30T15:12:17.092Z,7.96
2023-01-30T15:14:28.556Z,7.97
2023-01-30T15:16:47.535Z,7.96
2023-01-30T15:19:12.400Z,7.80
2023-01-30T15:21:37.493Z,7.76
2023-01-30T15:23:57.433Z,7.73
2023-01-30T15:26:13.874Z,7.65
2023-01-30T15:28:30.905Z,7.57
2023-01-30T15:30:57.276Z,7.55
2023-01-30T15:33:22.827Z,7.68
2023-01-30T15:35:31.669Z,7.69
2023-01-30T15:37:37.466Z,7.60
2023-01-30T15:39:41.241Z,7.51
2023-01-30T15:41:45.120Z,7.59
2023-01-30T15:44:34.437Z,7.59
2023-01-30T15:46:48.235Z,7.64
2023-01-30T15:49:07.781Z,7.47
2023-01-30T15:51:16.505Z,7.56
2023-01-30T15:53:27.439Z,7.54
2023-01-30T15:55:34.189Z,7.67
2023-01-30T15:57:40.743Z,7.58
2023-01-30T15:59:45.153Z,7.47
2023-01-30T16:01:49.506Z,7.43
2023-01-30T16:03:53.961Z,7.42
2023-01-30T16:05:58.742Z,7.55
2023-01-30T16:08:19.147Z,7.58
2023-01-30T16:10:24.937Z,7.44
2023-01-30T16:12:30.838Z,7.40
2023-01-30T16:14:34.702Z,7.37
2023-01-30T16:16:38.796Z,7.39
2023-01-30T16:18:48.816Z,7.35
2023-01-30T16:21:02.135Z,7.37
2023-01-30T16:23:21.254Z,7.44
2023-01-30T16:25:29.801Z,7.38
2023-01-30T16:27:37.268Z,7.44
2023-01-30T16:29:51.108Z,7.41
2023-01-30T16:31:55.922Z,7.31
2023-01-30T16:34:00.023Z,7.28
2023-01-30T16:36:04.773Z,7.23
2023-01-30T16:38:36.398Z,7.32
2023-01-30T16:40:47.231Z,7.49
2023-01-30T16:42:58.827Z,7.47
2023-01-30T16:45:30.195Z,7.47
2023-01-30T16:47:34.675Z,7.50
2023-01-30T16:49:45.872Z,7.56
2023-01-30T16:51:51.753Z,7.43
2023-01-30T16:54:02.472Z,6.75
2023-01-30T16:56:10.855Z,7.35
2023-01-30T16:58:18.378Z,7.42
2023-01-30T17:00:24.777Z,7.30
2023-01-30T17:02:33.987Z,7.22
2023-01-30T17:04:41.991Z,7.20
2023-01-30T17:06:54.349Z,7.30
2023-01-30T17:08:59.523Z,7.37
2023-01-30T17:11:03.714Z,7.29
2023-01-30T17:13:31.771Z,7.29
2023-01-30T17:15:36.815Z,7.32
2023-01-30T17:17:40.609Z,7.26
2023-01-30T17:19:48.501Z,7.26
2023-01-30T17:21:54.657Z,7.23
2023-01-30T17:24:02.678Z,7.10
2023-01-30T17:26:06.447Z,7.23
2023-01-30T17:28:19.642Z,7.28
2023-01-30T17:30:23.249Z,7.10
2023-01-30T17:32:26.847Z,7.20
2023-01-30T17:34:30.315Z,7.27
2023-01-30T17:36:33.886Z,7.20
2023-01-30T17:38:37.367Z,7.30
2023-01-30T17:40:43.156Z,7.34
2023-01-30T17:42:47.874Z,7.27
2023-01-30T17:44:51.364Z,7.31
2023-01-30T17:46:54.724Z,7.23
2023-01-30T17:48:58.351Z,7.30
2023-01-30T17:51:02.087Z,7.32
2023-01-30T17:53:05.722Z,7.39
2023-01-30T17:55:13.050Z,7.41
2023-01-30T17:57:17.961Z,7.27
2023-01-30T17:59:22.666Z,7.23
2023-01-30T18:01:26.411Z,7.26
2023-01-30T18:03:29.974Z,7.08
2023-01-30T18:05:33.503Z,7.24
2023-01-30T18:07:37.089Z,7.29
2023-01-30T18:09:40.559Z,7.29
2023-01-30T18:11:44.133Z,7.24
2023-01-30T18:13:48.915Z,7.29
2023-01-30T18:15:57.464Z,7.28
2023-01-30T18:18:00.872Z,7.34
2023-01-30T18:20:04.437Z,7.40
2023-01-30T18:22:07.865Z,7.23
2023-01-30T18:24:11.659Z,7.29
2023-01-30T18:26:15.160Z,6.99
2023-01-30T18:28:18.952Z,7.24
2023-01-30T18:30:24.998Z,7.13
2023-01-30T18:32:28.671Z,7.10
2023-01-30T18:34:32.351Z,7.11
2023-01-30T18:36:36.606Z,7.10
2023-01-30T18:38:40.164Z,7.15
2023-01-30T18:40:43.599Z,7.13
2023-01-30T18:42:47.272Z,7.19
2023-01-30T18:44:50.886Z,6.64
2023-01-30T18:46:55.731Z,7.04
2023-01-30T18:48:59.579Z,6.98
2023-01-30T18:51:11.784Z,6.90
2023-01-30T18:53:15.308Z,6.92
2023-01-30T18:55:19.734Z,6.92
2023-01-30T18:57:23.101Z,6.81
2023-01-30T18:59:26.560Z,6.93
2023-01-30T19:01:31.977Z,6.93
2023-01-30T19:03:36.919Z,6.90
2023-01-30T19:05:40.333Z,7.04
2023-01-30T19:07:43.774Z,7.02
2023-01-30T19:09:47.809Z,6.99
2023-01-30T19:12:08.550Z,6.97
2023-01-30T19:14:14.314Z,6.88
2023-01-30T19:16:17.848Z,6.63
2023-01-30T19:18:21.282Z,6.78
2023-01-30T19:20:26.706Z,6.65
2023-01-30T19:22:30.396Z,6.77
2023-01-30T19:24:33.785Z,6.65
2023-01-30T19:26:37.229Z,6.76
2023-01-30T19:28:41.677Z,6.80
2023-01-30T19:30:45.139Z,6.79
2023-01-30T19:32:48.881Z,6.81
2023-01-30T19:34:52.505Z,6.76
2023-01-30T19:36:57.320Z,6.79
2023-01-30T19:39:01.670Z,6.74
2023-01-30T19:41:05.375Z,6.70
2023-01-30T19:43:11.146Z,6.78
2023-01-30T19:45:14.960Z,6.66
2023-01-30T19:47:21.755Z,6.78
2023-01-30T19:49:25.205Z,6.76
2023-01-30T19:51:30.169Z,6.10
2023-01-30T19:53:34.926Z,6.79
2023-01-30T19:55:38.421Z,6.49
2023-01-30T19:57:41.840Z,6.47
2023-01-30T19:59:45.375Z,6.48
2023-01-30T20:01:49.281Z,6.55
2023-01-30T20:03:52.736Z,6.60
2023-01-30T20:06:07.600Z,6.53
2023-01-30T20:08:25.517Z,6.41
2023-01-30T20:10:36.295Z,6.46
2023-01-30T20:12:39.692Z,6.55
2023-01-30T20:14:43.057Z,6.61
2023-01-30T20:16:46.592Z,6.58
2023-01-30T20:18:56.131Z,6.61
2023-01-30T20:21:06.104Z,6.61
2023-01-30T20:23:09.669Z,6.57
2023-01-30T20:25:13.086Z,6.48
2023-01-30T20:27:17.844Z,6.42
2023-01-30T20:29:21.455Z,6.42
2023-01-30T20:31:27.952Z,6.53
2023-01-30T20:33:32.392Z,6.10
2023-01-30T20:35:35.834Z,6.60
2023-01-30T20:37:39.281Z,6.67
2023-01-30T20:39:42.718Z,6.55
2023-01-30T20:41:46.193Z,6.60
2023-01-30T20:43:53.064Z,6.50
2023-01-30T20:46:04.668Z,6.55
2023-01-30T20:48:08.183Z,6.45
2023-01-30T20:50:13.720Z,6.50
2023-01-30T20:52:17.389Z,6.26
2023-01-30T20:54:23.131Z,6.31
2023-01-30T20:56:31.779Z,6.34
2023-01-30T20:58:35.445Z,6.39
2023-01-30T21:00:40.668Z,6.49
2023-01-30T21:02:48.403Z,6.46
2023-01-30T21:04:51.982Z,6.49
2023-01-30T21:06:55.614Z,6.46
2023-01-30T21:08:59.363Z,6.31
2023-01-30T21:11:07.801Z,5.75
2023-01-30T21:13:11.185Z,6.23
2023-01-30T21:15:14.660Z,6.24
2023-01-30T21:17:19.603Z,6.04
2023-01-30T21:19:22.998Z,6.25
2023-01-30T21:21:28.700Z,6.33
2023-01-30T21:23:32.559Z,6.49
2023-01-30T21:25:36.142Z,6.51
2023-01-30T21:27:40.734Z,6.52
2023-01-30T21:29:44.180Z,6.53
2023-01-30T21:31:48.058Z,6.52
2023-01-30T21:33:53.468Z,6.52
2023-01-30T21:35:59.623Z,6.56
2023-01-30T21:38:20.711Z,6.51
2023-01-30T21:40:41.715Z,6.49
2023-01-30T21:43:04.752Z,6.47
2023-01-30T21:45:09.328Z,6.50
2023-01-30T21:47:13.837Z,6.44
2023-01-30T21:49:19.980Z,6.46
2023-01-30T21:51:25.332Z,6.40
2023-01-30T21:53:28.713Z,6.43
2023-01-30T21:55:32.303Z,5.74
2023-01-30T21:57:35.799Z,6.49
2023-01-30T21:59:39.971Z,6.37
2023-01-30T22:01:44.032Z,6.14
2023-01-30T22:03:47.646Z,6.20
2023-01-30T22:05:52.451Z,6.28
2023-01-30T22:07:55.829Z,6.11
2023-01-30T22:10:01.424Z,6.08
2023-01-30T22:12:05.259Z,6.09
2023-01-30T22:14:08.667Z,6.09
2023-01-30T22:16:14.857Z,5.98
2023-01-30T22:18:18.251Z,5.96
2023-01-30T22:20:21.622Z,6.05
2023-01-30T22:22:27.798Z,6.10
2023-01-30T22:24:31.462Z,6.00
2023-01-30T22:26:35.224Z,5.82
2023-01-30T22:28:39.715Z,6.06
2023-01-30T22:30:43.104Z,6.04
2023-01-30T22:32:46.469Z,6.11
2023-01-30T22:34:49.892Z,5.74
2023-01-30T22:36:53.502Z,5.94
2023-01-30T22:38:58.581Z,5.98
2023-01-30T22:41:04.058Z,5.96
2023-01-30T22:43:07.461Z,5.87
2023-01-30T22:45:11.955Z,5.94
2023-01-30T22:47:18.046Z,5.86
2023-01-30T22:49:22.107Z,5.90
2023-01-30T22:51:26.816Z,6.08
2023-01-30T22:53:34.453Z,6.15
2023-01-30T22:55:39.344Z,6.09
2023-01-30T22:57:42.842Z,6.10
2023-01-30T22:59:46.228Z,6.06
2023-01-30T23:01:52.517Z,5.90
2023-01-30T23:03:58.241Z,5.96
2023-01-30T23:06:03.474Z,5.98
2023-01-30T23:08:06.891Z,5.95
2023-01-30T23:10:11.497Z,6.10
2023-01-30T23:12:33.817Z,5.84
2023-01-30T23:14:38.377Z,6.06
2023-01-30T23:16:43.840Z,5.45
2023-01-30T23:18:55.277Z,6.10
2023-01-30T23:20:59.200Z,6.03
2023-01-30T23:23:03.180Z,6.00
2023-01-30T23:25:08.936Z,5.98
2023-01-30T23:27:12.405Z,6.03
2023-01-30T23:29:18.911Z,6.14
2023-01-30T23:31:24.224Z,6.06
2023-01-30T23:33:27.909Z,6.05
2023-01-30T23:35:31.470Z,6.12
2023-01-30T23:37:52.491Z,6.00
2023-01-30T23:39:55.857Z,6.05
2023-01-30T23:42:00.602Z,6.12
2023-01-30T23:44:04.507Z,6.00
2023-01-30T23:46:15.589Z,5.48
2023-01-30T23:48:19.061Z,6.12
2023-01-30T23:50:22.498Z,6.11
2023-01-30T23:52:25.873Z,6.17
2023-01-30T23:54:29.466Z,6.08
2023-01-30T23:56:35.510Z,6.05
2023-01-30T23:58:39.970Z,6.14
